createdAt,value
2023-03-27T00:01:49.844Z,99344.13
2023-03-27T00:03:53.399Z,99352.25
2023-03-27T00:06:00.121Z,99362.34
2023-03-27T00:08:01.665Z,99362.03
2023-03-27T00:10:03.099Z,99364.19
2023-03-27T00:12:05.906Z,99368.88
2023-03-27T00:14:07.481Z,99369.53
2023-03-27T00:16:09.749Z,99373.50
2023-03-27T00:18:11.389Z,99379.69
2023-03-27T00:20:14.988Z,99388.94
2023-03-27T00:22:16.933Z,99397.09
2023-03-27T00:24:18.334Z,99399.56
2023-03-27T00:26:21.402Z,99407.53
2023-03-27T00:28:24.168Z,99404.47
2023-03-27T00:30:26.947Z,99407.56
2023-03-27T00:32:28.384Z,99409.19
2023-03-27T00:34:31.268Z,99417.81
2023-03-27T00:36:32.657Z,99414.59
2023-03-27T00:38:34.063Z,99424.53
2023-03-27T00:40:37.182Z,99422.22
2023-03-27T00:42:38.822Z,99412.28
2023-03-27T00:44:42.396Z,99421.75
2023-03-27T00:46:44.925Z,99428.94
2023-03-27T00:48:49.460Z,99424.84
2023-03-27T00:50:51.611Z,99428.25
2023-03-27T00:52:58.288Z,99437.72
2023-03-27T00:55:04.681Z,99431.88
2023-03-27T00:57:09.515Z,99432.72
2023-03-27T00:59:16.077Z,99440.19
2023-03-27T01:01:20.008Z,99443.25
2023-03-27T01:03:24.817Z,99441.34
2023-03-27T01:05:27.343Z,99446.38
2023-03-27T01:07:28.778Z,99440.88
2023-03-27T01:09:30.290Z,99444.78
2023-03-27T01:11:57.377Z,99444.94
2023-03-27T01:14:26.448Z,99448.06
2023-03-27T01:16:59.716Z,99443.47
2023-03-27T01:19:26.283Z,99454.88
2023-03-27T01:21:54.551Z,99451.16
2023-03-27T01:24:14.600Z,99464.44
2023-03-27T01:26:48.748Z,99468.88
2023-03-27T01:29:30.449Z,99462.03
2023-03-27T01:31:52.103Z,99478.13
2023-03-27T01:34:15.264Z,99480.59
2023-03-27T01:36:32.637Z,99483.53
2023-03-27T01:39:11.381Z,99488.06
2023-03-27T01:41:19.540Z,99494.41
2023-03-27T01:43:33.346Z,99500.09
2023-03-27T01:45:45.460Z,99501.56
2023-03-27T01:48:03.187Z,99494.06
2023-03-27T01:50:14.705Z,99507.59
2023-03-27T01:52:24.240Z,99512.94
2023-03-27T01:54:31.640Z,99512.78
2023-03-27T01:56:37.667Z,99517.50
2023-03-27T01:58:46.702Z,99526.94
2023-03-27T02:00:54.059Z,99528.53
2023-03-27T02:03:05.512Z,99526.09
2023-03-27T02:05:22.648Z,99526.09
2023-03-27T02:07:33.068Z,99536.34
2023-03-27T02:09:39.330Z,99539.44
2023-03-27T02:11:46.981Z,99540.06
2023-03-27T02:14:04.009Z,99534.84
2023-03-27T02:16:08.647Z,99539.91
2023-03-27T02:18:14.946Z,99545.09
2023-03-27T02:20:17.985Z,99545.41
2023-03-27T02:22:19.423Z,99555.50
2023-03-27T02:24:40.135Z,99558.09
2023-03-27T02:26:41.638Z,99555.97
2023-03-27T02:28:59.173Z,99554.81
2023-03-27T02:31:33.194Z,99554.16
2023-03-27T02:33:54.497Z,99560.03
2023-03-27T02:36:22.366Z,99561.00
2023-03-27T02:38:41.459Z,99559.69
2023-03-27T02:41:18.937Z,99574.31
2023-03-27T02:43:54.128Z,99578.19
2023-03-27T02:46:07.490Z,99583.72
2023-03-27T02:48:17.370Z,99587.28
2023-03-27T02:50:43.900Z,99591.47
2023-03-27T02:52:51.300Z,99596.97
2023-03-27T02:55:06.054Z,99603.00
2023-03-27T02:57:15.828Z,99610.78
2023-03-27T02:59:25.446Z,99606.56
2023-03-27T03:01:30.557Z,99611.44
2023-03-27T03:03:41.685Z,99620.88
2023-03-27T03:05:44.138Z,99629.63
2023-03-27T03:07:46.252Z,99629.50
2023-03-27T03:09:48.366Z,99626.22
2023-03-27T03:11:52.540Z,99633.38
2023-03-27T03:13:54.333Z,99634.19
2023-03-27T03:15:55.714Z,99639.69
2023-03-27T03:17:57.148Z,99636.09
2023-03-27T03:19:58.605Z,99637.09
2023-03-27T03:22:00.965Z,99638.06
2023-03-27T03:24:02.334Z,99636.72
2023-03-27T03:26:04.032Z,99637.88
2023-03-27T03:28:08.122Z,99637.06
2023-03-27T03:30:10.066Z,99636.38
2023-03-27T03:32:11.540Z,99644.66
2023-03-27T03:34:16.231Z,99644.47
2023-03-27T03:36:17.818Z,99653.25
2023-03-27T03:38:24.963Z,99654.38
2023-03-27T03:40:26.883Z,99658.59
2023-03-27T03:42:28.271Z,99662.66
2023-03-27T03:44:29.904Z,99668.63
2023-03-27T03:46:31.774Z,99676.91
2023-03-27T03:48:33.250Z,99671.22
2023-03-27T03:50:34.994Z,99679.00
2023-03-27T03:52:36.447Z,99685.03
2023-03-27T03:54:38.767Z,99689.13
2023-03-27T03:56:43.179Z,99684.72
2023-03-27T03:58:44.784Z,99694.31
2023-03-27T04:00:47.058Z,99690.09
2023-03-27T04:02:53.668Z,99689.41
2023-03-27T04:04:59.219Z,99702.69
2023-03-27T04:07:00.621Z,99704.47
2023-03-27T04:09:02.011Z,99700.63
2023-03-27T04:11:04.383Z,99705.22
2023-03-27T04:13:06.761Z,99713.53
2023-03-27T04:15:09.251Z,99712.91
2023-03-27T04:17:11.329Z,99705.47
2023-03-27T04:19:12.954Z,99706.94
2023-03-27T04:21:14.651Z,99715.56
2023-03-27T04:23:19.924Z,99715.88
2023-03-27T04:25:23.775Z,99723.34
2023-03-27T04:27:30.190Z,99733.25
2023-03-27T04:29:31.896Z,99726.97
2023-03-27T04:31:34.514Z,99739.47
2023-03-27T04:33:46.833Z,99735.09
2023-03-27T04:36:06.262Z,99747.28
2023-03-27T04:38:08.918Z,99743.72
2023-03-27T04:40:13.272Z,99750.53
2023-03-27T04:42:15.069Z,99752.31
2023-03-27T04:44:20.090Z,99754.78
2023-03-27T04:46:21.786Z,99756.56
2023-03-27T04:48:23.327Z,99758.72
2023-03-27T04:50:24.763Z,99755.13
2023-03-27T04:52:26.522Z,99762.91
2023-03-27T04:54:31.548Z,99757.66
2023-03-27T04:56:35.059Z,99764.66
2023-03-27T04:58:37.590Z,99761.09
2023-03-27T05:00:40.293Z,99767.56
2023-03-27T05:02:42.985Z,99774.38
2023-03-27T05:04:45.538Z,99770.16
2023-03-27T05:06:46.974Z,99774.38
2023-03-27T05:08:48.630Z,99779.44
2023-03-27T05:10:50.709Z,99786.13
2023-03-27T05:12:54.422Z,99778.63
2023-03-27T05:14:56.612Z,99792.59
2023-03-27T05:17:00.779Z,99788.34
2023-03-27T05:19:04.929Z,99791.16
2023-03-27T05:21:06.346Z,99796.56
2023-03-27T05:23:07.810Z,99799.69
2023-03-27T05:25:10.461Z,99802.94
2023-03-27T05:27:11.910Z,99804.06
2023-03-27T05:29:13.752Z,99804.88
2023-03-27T05:31:15.191Z,99800.31
2023-03-27T05:33:17.530Z,99811.03
2023-03-27T05:35:21.607Z,99810.06
2023-03-27T05:37:24.578Z,99811.53
2023-03-27T05:39:28.442Z,99815.63
2023-03-27T05:41:30.081Z,99827.53
2023-03-27T05:43:31.467Z,99824.34
2023-03-27T05:45:33.883Z,99816.75
2023-03-27T05:47:44.288Z,99831.72
2023-03-27T05:49:45.917Z,99836.81
2023-03-27T05:51:47.517Z,99836.19
2023-03-27T05:53:48.944Z,99832.81
2023-03-27T05:55:50.677Z,99840.19
2023-03-27T05:58:10.104Z,99841.03
2023-03-27T06:00:16.332Z,99845.78
2023-03-27T06:02:21.104Z,99841.69
2023-03-27T06:04:23.006Z,99846.28
2023-03-27T06:06:24.484Z,99848.06
2023-03-27T06:08:26.992Z,99848.69
2023-03-27T06:10:30.138Z,99852.81
2023-03-27T06:12:31.641Z,99854.75
2023-03-27T06:14:33.016Z,99864.53
2023-03-27T06:16:34.665Z,99865.03
2023-03-27T06:18:36.537Z,99858.72
2023-03-27T06:20:38.927Z,99870.31
2023-03-27T06:22:46.255Z,99871.94
2023-03-27T06:24:47.723Z,99870.13
2023-03-27T06:26:49.209Z,99875.53
2023-03-27T06:28:50.612Z,99877.34
2023-03-27T06:30:52.138Z,99885.94
2023-03-27T06:32:59.285Z,99879.28
2023-03-27T06:35:00.721Z,99873.94
2023-03-27T06:37:04.974Z,99881.72
2023-03-27T06:39:06.483Z,99892.34
2023-03-27T06:41:07.873Z,99895.59
2023-03-27T06:43:10.313Z,99894.63
2023-03-27T06:45:11.771Z,99900.81
2023-03-27T06:47:14.154Z,99898.00
2023-03-27T06:49:15.966Z,99896.72
2023-03-27T06:51:20.337Z,99905.50
2023-03-27T06:55:29.294Z,99895.59
2023-03-27T06:57:30.991Z,99901.00
2023-03-27T06:59:32.422Z,99909.13
2023-03-27T07:01:33.967Z,99915.50
2023-03-27T07:03:35.419Z,99908.69
2023-03-27T07:05:39.149Z,99906.56
2023-03-27T07:07:41.709Z,99909.81
2023-03-27T07:09:43.228Z,99911.59
2023-03-27T07:11:44.582Z,99918.28
2023-03-27T07:13:46.124Z,99917.81
2023-03-27T07:15:47.615Z,99916.34
2023-03-27T07:17:56.595Z,99924.81
2023-03-27T07:19:58.006Z,99924.66
2023-03-27T07:21:59.482Z,99932.00
2023-03-27T07:24:00.889Z,99925.81
2023-03-27T07:26:02.309Z,99931.31
2023-03-27T07:28:09.946Z,99939.34
2023-03-27T07:30:13.216Z,99941.09
2023-03-27T07:32:22.277Z,99937.19
2023-03-27T07:34:31.362Z,99946.66
2023-03-27T07:36:33.704Z,99952.34
2023-03-27T07:38:35.877Z,99946.47
2023-03-27T07:40:40.349Z,99947.44
2023-03-27T07:42:45.998Z,99954.44
2023-03-27T07:44:47.452Z,99950.50
2023-03-27T07:46:51.994Z,99966.81
2023-03-27T07:48:53.689Z,99955.72
2023-03-27T07:53:08.652Z,99963.69
2023-03-27T07:55:17.168Z,99960.53
2023-03-27T07:57:18.716Z,99964.78
2023-03-27T07:59:23.038Z,99961.69
2023-03-27T08:01:26.020Z,99971.44
2023-03-27T08:03:28.203Z,99965.22
2023-03-27T08:05:29.680Z,99971.22
2023-03-27T08:07:32.152Z,99971.03
2023-03-27T08:09:33.606Z,99985.41
2023-03-27T08:11:37.414Z,99975.06
2023-03-27T08:13:39.755Z,99980.72
2023-03-27T08:15:41.293Z,99980.47
2023-03-27T08:17:42.817Z,99980.34
2023-03-27T08:19:46.263Z,99980.00
2023-03-27T08:21:47.761Z,99985.38
2023-03-27T08:23:49.661Z,99991.75
2023-03-27T08:25:52.186Z,99985.19
2023-03-27T08:27:53.636Z,99979.38
2023-03-27T08:29:55.076Z,99993.91
2023-03-27T08:31:56.451Z,99991.75
2023-03-27T08:33:57.841Z,99992.63
2023-03-27T08:35:59.574Z,99990.44
2023-03-27T08:38:01.268Z,99992.88
2023-03-27T08:40:08.674Z,99996.47
2023-03-27T08:42:18.543Z,99995.47
2023-03-27T08:44:23.293Z,100011.44
2023-03-27T08:46:47.801Z,100022.56
2023-03-27T08:49:03.320Z,100011.41
2023-03-27T08:51:14.082Z,100011.50
2023-03-27T08:53:48.797Z,100013.03
2023-03-27T08:55:50.212Z,100019.00
2023-03-27T08:57:51.878Z,100011.31
2023-03-27T08:59:58.837Z,100014.69
2023-03-27T09:02:23.669Z,100027.22
2023-03-27T09:04:39.284Z,100020.75
2023-03-27T09:06:58.399Z,100021.81
2023-03-27T09:09:10.692Z,100041.72
2023-03-27T09:11:35.740Z,100031.56
2023-03-27T09:13:55.529Z,100029.75
2023-03-27T09:15:57.432Z,100041.34
2023-03-27T09:18:04.449Z,100043.53
2023-03-27T09:20:32.183Z,100035.59
2023-03-27T09:22:43.798Z,100037.47
2023-03-27T09:24:53.217Z,100042.88
2023-03-27T09:27:06.840Z,100042.50
2023-03-27T09:29:10.352Z,100049.69
2023-03-27T09:31:26.516Z,100035.75
2023-03-27T09:33:28.066Z,100036.97
2023-03-27T09:35:29.831Z,100033.53
2023-03-27T09:37:31.432Z,100035.59
2023-03-27T09:39:37.801Z,100036.69
2023-03-27T09:41:44.273Z,100043.53
2023-03-27T09:44:06.089Z,100041.13
2023-03-27T09:46:12.111Z,100031.44
2023-03-27T09:48:31.654Z,100040.88
2023-03-27T09:50:49.113Z,100050.63
2023-03-27T09:52:52.259Z,100045.03
2023-03-27T09:54:55.829Z,100047.66
2023-03-27T09:57:06.296Z,100053.41
2023-03-27T09:59:11.529Z,100057.41
2023-03-27T10:01:34.417Z,100046.66
2023-03-27T10:03:51.301Z,100051.38
2023-03-27T10:06:06.954Z,100044.88
2023-03-27T10:08:31.329Z,100050.00
2023-03-27T10:10:37.753Z,100043.81
2023-03-27T10:12:40.150Z,100049.69
2023-03-27T10:14:47.836Z,100056.25
2023-03-27T10:16:49.675Z,100060.97
2023-03-27T10:18:55.095Z,100051.06
2023-03-27T10:20:59.284Z,100062.44
2023-03-27T10:23:09.599Z,100063.38
2023-03-27T10:25:48.977Z,100060.13
2023-03-27T10:27:53.222Z,100064.91
2023-03-27T10:29:54.609Z,100065.41
2023-03-27T10:31:58.936Z,100062.22
2023-03-27T10:34:02.378Z,100080.66
2023-03-27T10:36:10.046Z,100065.72
2023-03-27T10:38:16.929Z,100069.19
2023-03-27T10:40:20.705Z,100056.38
2023-03-27T10:42:26.709Z,100092.09
2023-03-27T10:44:28.729Z,100079.06
2023-03-27T10:46:31.081Z,100086.47
2023-03-27T10:49:01.858Z,100090.28
2023-03-27T10:51:08.085Z,100089.03
2023-03-27T10:53:30.179Z,100075.91
2023-03-27T10:55:56.527Z,100091.72
2023-03-27T10:58:02.777Z,100095.50
2023-03-27T11:00:22.430Z,100087.66
2023-03-27T11:02:31.509Z,100091.16
2023-03-27T11:04:44.451Z,100092.69
2023-03-27T11:06:48.856Z,100084.56
2023-03-27T11:09:24.135Z,100085.56
2023-03-27T11:11:30.513Z,100088.81
2023-03-27T11:13:38.151Z,100075.91
2023-03-27T11:15:44.840Z,100083.75
2023-03-27T11:17:56.217Z,100095.47
2023-03-27T11:20:07.278Z,100092.03
2023-03-27T11:22:16.714Z,100089.09
2023-03-27T11:24:54.512Z,100102.09
2023-03-27T11:27:20.841Z,100097.38
2023-03-27T11:29:46.401Z,100088.91
2023-03-27T11:31:52.574Z,100105.34
2023-03-27T11:34:29.470Z,100086.47
2023-03-27T11:36:45.026Z,100095.72
2023-03-27T11:39:27.226Z,100098.56
2023-03-27T11:41:28.690Z,100102.59
2023-03-27T11:43:30.362Z,100107.28
2023-03-27T11:45:53.028Z,100095.81
2023-03-27T11:48:11.103Z,100103.19
2023-03-27T11:50:18.712Z,100101.66
2023-03-27T11:52:43.343Z,100102.91
2023-03-27T11:55:06.513Z,100092.44
2023-03-27T11:57:23.832Z,100097.38
2023-03-27T11:59:48.450Z,100104.03
2023-03-27T12:01:58.714Z,100112.69
2023-03-27T12:04:20.041Z,100134.09
2023-03-27T12:06:39.568Z,100155.25
2023-03-27T12:08:52.711Z,100169.19
2023-03-27T12:10:57.001Z,100169.88
2023-03-27T12:13:17.475Z,100163.47
2023-03-27T12:15:41.537Z,100168.00
2023-03-27T12:18:15.475Z,100155.09
2023-03-27T12:20:30.588Z,100155.81
2023-03-27T12:22:41.706Z,100153.63
2023-03-27T12:24:59.809Z,100150.88
2023-03-27T12:27:23.312Z,100148.63
2023-03-27T12:29:30.758Z,100140.19
2023-03-27T12:32:01.687Z,100142.16
2023-03-27T12:34:22.443Z,100142.78
2023-03-27T12:36:26.205Z,100130.09
2023-03-27T12:38:40.464Z,100136.47
2023-03-27T12:40:58.972Z,100145.72
2023-03-27T12:43:11.634Z,100139.28
2023-03-27T12:45:15.018Z,100152.06
2023-03-27T12:47:19.492Z,100141.59
2023-03-27T12:49:20.867Z,100132.31
2023-03-27T12:51:53.619Z,100145.69
2023-03-27T12:53:56.076Z,100138.13
2023-03-27T12:56:09.551Z,100130.03
2023-03-27T12:58:34.497Z,100127.50
2023-03-27T13:00:36.968Z,100123.72
2023-03-27T13:03:15.617Z,100120.91
2023-03-27T13:05:36.101Z,100135.44
2023-03-27T13:07:52.248Z,100147.31
2023-03-27T13:10:17.019Z,100143.88
2023-03-27T13:12:33.223Z,100175.50
2023-03-27T13:14:46.454Z,100160.66
2023-03-27T13:16:58.273Z,100182.63
2023-03-27T13:19:58.537Z,100178.88
2023-03-27T13:22:23.606Z,100176.91
2023-03-27T13:24:36.735Z,100186.97
2023-03-27T13:27:07.886Z,100186.78
2023-03-27T13:29:20.693Z,100188.03
2023-03-27T13:32:19.258Z,100185.66
2023-03-27T13:34:28.735Z,100184.47
2023-03-27T13:36:30.176Z,100186.03
2023-03-27T13:38:51.607Z,100188.66
2023-03-27T13:40:53.007Z,100193.19
2023-03-27T13:43:16.634Z,100190.81
2023-03-27T13:45:26.794Z,100175.03
2023-03-27T13:47:34.327Z,100184.16
2023-03-27T13:49:57.621Z,100194.44
2023-03-27T13:52:33.474Z,100192.66
2023-03-27T13:55:04.085Z,100203.59
2023-03-27T13:57:43.468Z,100191.81
2023-03-27T13:59:54.615Z,100199.00
2023-03-27T14:02:26.049Z,100194.66
2023-03-27T14:04:38.679Z,100201.84
2023-03-27T14:07:21.509Z,100208.63
2023-03-27T14:09:56.809Z,100201.88
2023-03-27T14:12:26.881Z,100200.72
2023-03-27T14:14:39.360Z,100200.41
2023-03-27T14:16:48.099Z,100188.44
2023-03-27T14:19:18.300Z,100190.31
2023-03-27T14:21:35.408Z,100185.19
2023-03-27T14:23:46.479Z,100196.53
2023-03-27T14:25:56.443Z,100195.97
2023-03-27T14:27:59.713Z,100190.66
2023-03-27T14:30:20.433Z,100206.66
2023-03-27T14:32:22.715Z,100221.97
2023-03-27T14:34:31.539Z,100227.16
2023-03-27T14:36:42.161Z,100239.31
2023-03-27T14:38:44.421Z,100235.69
2023-03-27T14:40:54.548Z,100234.69
2023-03-27T14:42:58.286Z,100216.94
2023-03-27T14:45:23.940Z,100213.25
2023-03-27T14:47:25.488Z,100214.44
2023-03-27T14:49:35.868Z,100207.31
2023-03-27T14:51:41.896Z,100198.72
2023-03-27T14:53:47.260Z,100203.59
2023-03-27T14:55:49.334Z,100196.44
2023-03-27T14:57:55.236Z,100206.13
2023-03-27T14:59:57.021Z,100201.78
2023-03-27T15:02:00.107Z,100198.31
2023-03-27T15:04:03.241Z,100195.19
2023-03-27T15:06:13.388Z,100192.41
2023-03-27T15:08:19.315Z,100199.81
2023-03-27T15:10:31.769Z,100197.53
2023-03-27T15:12:37.423Z,100213.25
2023-03-27T15:14:40.324Z,100221.78
2023-03-27T15:16:44.632Z,100224.41
2023-03-27T15:18:49.269Z,100232.00
2023-03-27T15:20:52.341Z,100234.75
2023-03-27T15:23:12.023Z,100228.19
2023-03-27T15:25:20.548Z,100222.44
2023-03-27T15:27:29.565Z,100216.44
2023-03-27T15:29:49.690Z,100222.09
2023-03-27T15:31:52.051Z,100213.03
2023-03-27T15:34:03.542Z,100204.41
2023-03-27T15:36:10.937Z,100218.94
2023-03-27T15:38:15.671Z,100222.84
2023-03-27T15:40:23.712Z,100225.13
2023-03-27T15:42:26.179Z,100218.78
2023-03-27T15:44:31.839Z,100219.00
2023-03-27T15:46:50.424Z,100228.84
2023-03-27T15:48:56.309Z,100230.84
2023-03-27T15:50:59.909Z,100229.41
2023-03-27T15:55:04.007Z,100221.25
2023-03-27T15:57:11.590Z,100227.09
2023-03-27T15:59:15.979Z,100227.25
2023-03-27T16:01:32.359Z,100219.38
2023-03-27T16:03:34.828Z,100235.72
2023-03-27T16:05:42.657Z,100248.03
2023-03-27T16:07:47.204Z,100242.56
2023-03-27T16:09:52.101Z,100251.28
2023-03-27T16:11:55.753Z,100247.59
2023-03-27T16:13:58.849Z,100256.91
2023-03-27T16:16:03.882Z,100244.75
2023-03-27T16:18:26.593Z,100251.72
2023-03-27T16:20:35.042Z,100260.16
2023-03-27T16:22:38.010Z,100271.69
2023-03-27T16:24:39.461Z,100264.47
2023-03-27T16:26:41.050Z,100266.94
2023-03-27T16:28:43.026Z,100265.09
2023-03-27T16:30:45.696Z,100261.03
2023-03-27T16:32:47.170Z,100251.50
2023-03-27T16:34:51.322Z,100262.91
2023-03-27T16:36:52.831Z,100267.31
2023-03-27T16:38:54.312Z,100280.75
2023-03-27T16:40:55.810Z,100287.13
2023-03-27T16:42:57.279Z,100290.84
2023-03-27T16:44:59.089Z,100293.06
2023-03-27T16:47:00.869Z,100306.25
2023-03-27T16:49:02.337Z,100295.97
2023-03-27T16:51:03.990Z,100314.22
2023-03-27T16:53:05.575Z,100316.66
2023-03-27T16:55:08.020Z,100312.41
2023-03-27T16:57:10.255Z,100321.56
2023-03-27T16:59:12.051Z,100326.81
2023-03-27T17:01:13.764Z,100330.28
2023-03-27T17:03:16.246Z,100335.53
2023-03-27T17:05:18.063Z,100341.16
2023-03-27T17:07:19.433Z,100347.41
2023-03-27T17:09:22.506Z,100355.34
2023-03-27T17:11:24.068Z,100352.28
2023-03-27T17:13:25.708Z,100349.44
2023-03-27T17:15:27.170Z,100356.06
2023-03-27T17:17:30.309Z,100362.56
2023-03-27T17:19:31.936Z,100401.75
2023-03-27T17:21:33.376Z,100374.13
2023-03-27T17:23:35.010Z,100369.25
2023-03-27T17:25:36.555Z,100375.22
2023-03-27T17:27:38.023Z,100364.38
2023-03-27T17:29:41.923Z,100378.31
2023-03-27T17:31:43.716Z,100381.75
2023-03-27T17:33:45.410Z,100382.31
2023-03-27T17:35:46.956Z,100386.78
2023-03-27T17:37:48.383Z,100387.31
2023-03-27T17:39:49.838Z,100390.50
2023-03-27T17:41:51.842Z,100397.28
2023-03-27T17:43:53.210Z,100395.34
2023-03-27T17:45:54.850Z,100402.31
2023-03-27T17:47:56.361Z,100403.94
2023-03-27T17:49:57.864Z,100401.16
2023-03-27T17:51:59.235Z,100406.31
2023-03-27T17:54:01.280Z,100407.88
2023-03-27T17:56:02.644Z,100411.72
2023-03-27T17:58:09.297Z,100414.59
2023-03-27T18:00:11.708Z,100421.19
2023-03-27T18:02:18.880Z,100415.47
2023-03-27T18:04:20.309Z,100427.47
2023-03-27T18:06:21.738Z,100428.47
2023-03-27T18:08:23.113Z,100427.00
2023-03-27T18:10:24.603Z,100427.84
2023-03-27T18:12:25.972Z,100421.31
2023-03-27T18:14:27.385Z,100434.75
2023-03-27T18:16:29.071Z,100432.00
2023-03-27T18:18:30.842Z,100438.25
2023-03-27T18:20:32.405Z,100442.47
2023-03-27T18:22:33.794Z,100450.19
2023-03-27T18:24:35.300Z,100441.34
2023-03-27T18:26:36.926Z,100451.00
2023-03-27T18:28:38.311Z,100454.31
2023-03-27T18:30:41.471Z,100451.69
2023-03-27T18:32:45.439Z,100449.22
2023-03-27T18:34:47.021Z,100452.00
2023-03-27T18:36:51.655Z,100461.16
2023-03-27T18:38:53.096Z,100470.16
2023-03-27T18:40:59.689Z,100467.22
2023-03-27T18:43:01.583Z,100470.66
2023-03-27T18:45:04.866Z,100470.16
2023-03-27T18:47:06.254Z,100474.09
2023-03-27T18:49:17.509Z,100475.09
2023-03-27T18:51:23.975Z,100487.84
2023-03-27T18:53:25.928Z,100489.13
2023-03-27T18:55:27.307Z,100487.50
2023-03-27T18:57:29.228Z,100492.41
2023-03-27T18:59:31.076Z,100486.81
2023-03-27T19:01:34.871Z,100495.31
2023-03-27T19:03:37.327Z,100495.44
2023-03-27T19:05:38.737Z,100498.03
2023-03-27T19:07:44.809Z,100492.00
2023-03-27T19:09:46.895Z,100489.53
2023-03-27T19:11:48.310Z,100493.25
2023-03-27T19:13:49.741Z,100492.44
2023-03-27T19:15:51.479Z,100494.22
2023-03-27T19:17:53.153Z,100498.75
2023-03-27T19:19:54.879Z,100497.75
2023-03-27T19:21:56.725Z,100498.72
2023-03-27T19:23:58.178Z,100502.78
2023-03-27T19:26:08.937Z,100508.34
2023-03-27T19:28:10.346Z,100503.94
2023-03-27T19:30:13.817Z,100503.44
2023-03-27T19:32:15.394Z,100512.38
2023-03-27T19:34:16.927Z,100502.75
2023-03-27T19:36:18.460Z,100514.03
2023-03-27T19:38:19.888Z,100508.34
2023-03-27T19:40:21.654Z,100509.94
2023-03-27T19:42:23.113Z,100518.78
2023-03-27T19:44:24.594Z,100507.66
2023-03-27T19:46:26.310Z,100506.00
2023-03-27T19:48:27.838Z,100514.28
2023-03-27T19:50:29.296Z,100513.63
2023-03-27T19:52:30.971Z,100517.72
2023-03-27T19:54:32.629Z,100520.28
2023-03-27T19:56:34.949Z,100520.91
2023-03-27T19:58:36.602Z,100521.41
2023-03-27T20:00:40.706Z,100523.53
2023-03-27T20:02:43.832Z,100528.06
2023-03-27T20:04:45.443Z,100532.25
2023-03-27T20:06:47.003Z,100535.34
2023-03-27T20:08:48.374Z,100531.22
2023-03-27T20:10:50.268Z,100535.13
2023-03-27T20:12:51.693Z,100535.59
2023-03-27T20:15:02.815Z,100535.88
2023-03-27T20:17:27.638Z,100539.63
2023-03-27T20:19:31.003Z,100540.38
2023-03-27T20:21:39.153Z,100540.53
2023-03-27T20:23:41.863Z,100545.75
2023-03-27T20:25:44.450Z,100544.72
2023-03-27T20:27:45.936Z,100546.19
2023-03-27T20:29:47.772Z,100549.25
2023-03-27T20:31:49.450Z,100551.50
2023-03-27T20:33:53.115Z,100549.16
2023-03-27T20:35:55.031Z,100552.09
2023-03-27T20:37:57.522Z,100553.66
2023-03-27T20:40:01.879Z,100550.09
2023-03-27T20:42:03.680Z,100552.16
2023-03-27T20:44:34.720Z,100561.84
2023-03-27T20:46:36.187Z,100562.22
2023-03-27T20:48:41.541Z,100554.09
2023-03-27T20:50:48.885Z,100565.44
2023-03-27T20:52:50.266Z,100568.03
2023-03-27T20:54:51.652Z,100558.84
2023-03-27T20:56:53.096Z,100567.00
2023-03-27T20:58:54.577Z,100563.19
2023-03-27T21:00:56.733Z,100566.88
2023-03-27T21:02:58.222Z,100563.47
2023-03-27T21:04:59.753Z,100564.44
2023-03-27T21:07:01.131Z,100561.56
2023-03-27T21:09:02.532Z,100568.59
2023-03-27T21:11:04.867Z,100562.88
2023-03-27T21:13:06.678Z,100565.75
2023-03-27T21:15:09.031Z,100569.47
2023-03-27T21:17:10.712Z,100569.63
2023-03-27T21:19:12.202Z,100562.66
2023-03-27T21:21:13.621Z,100571.69
2023-03-27T21:23:15.258Z,100573.50
2023-03-27T21:25:17.123Z,100569.53
2023-03-27T21:27:18.517Z,100576.94
2023-03-27T21:29:20.820Z,100580.25
2023-03-27T21:31:22.331Z,100582.47
2023-03-27T21:33:23.775Z,100582.47
2023-03-27T21:35:25.435Z,100580.97
2023-03-27T21:37:26.848Z,100583.88
2023-03-27T21:39:28.267Z,100583.16
2023-03-27T21:41:30.875Z,100580.28
2023-03-27T21:43:32.495Z,100584.94
2023-03-27T21:45:34.486Z,100579.91
2023-03-27T21:47:47.256Z,100585.00
2023-03-27T21:49:49.126Z,100588.56
2023-03-27T21:51:50.732Z,100592.41
2023-03-27T21:53:53.191Z,100596.00
2023-03-27T21:55:54.874Z,100591.88
2023-03-27T21:57:56.309Z,100599.44
2023-03-27T21:59:57.751Z,100597.81
2023-03-27T22:01:59.175Z,100602.63
2023-03-27T22:04:02.353Z,100595.78
2023-03-27T22:06:12.413Z,100598.66
2023-03-27T22:08:15.353Z,100596.03
2023-03-27T22:10:17.623Z,100596.75
2023-03-27T22:12:19.917Z,100604.69
2023-03-27T22:14:21.305Z,100601.97
2023-03-27T22:16:22.841Z,100611.84
2023-03-27T22:18:24.774Z,100609.78
2023-03-27T22:20:26.998Z,100615.16
2023-03-27T22:22:28.413Z,100617.88
2023-03-27T22:24:29.813Z,100625.28
2023-03-27T22:26:37.849Z,100619.13
2023-03-27T22:28:39.315Z,100624.63
2023-03-27T22:30:41.658Z,100625.84
2023-03-27T22:32:43.191Z,100623.38
2023-03-27T22:34:44.726Z,100632.84
2023-03-27T22:36:46.307Z,100635.16
2023-03-27T22:38:48.243Z,100634.47
2023-03-27T22:40:49.640Z,100630.09
2023-03-27T22:42:51.083Z,100634.22
2023-03-27T22:44:52.469Z,100643.25
2023-03-27T22:46:54.017Z,100642.00
2023-03-27T22:48:57.023Z,100644.91
2023-03-27T22:50:58.986Z,100644.91
2023-03-27T22:53:00.506Z,100647.34
2023-03-27T22:55:01.888Z,100645.16
2023-03-27T22:57:03.373Z,100650.22
2023-03-27T22:59:05.509Z,100652.41
2023-03-27T23:01:07.640Z,100648.44
2023-03-27T23:03:09.187Z,100652.00
2023-03-27T23:05:10.738Z,100655.84
2023-03-27T23:07:12.094Z,100655.28
2023-03-27T23:09:13.454Z,100656.34
2023-03-27T23:11:15.351Z,100665.94
2023-03-27T23:13:16.736Z,100668.69
2023-03-27T23:15:29.873Z,100664.69
2023-03-27T23:17:31.753Z,100667.19
2023-03-27T23:19:33.167Z,100661.41
2023-03-27T23:21:34.708Z,100658.50
2023-03-27T23:23:37.713Z,100666.84
2023-03-27T23:25:41.788Z,100666.31
2023-03-27T23:27:43.179Z,100672.06
2023-03-27T23:29:44.603Z,100668.91
2023-03-27T23:31:46.066Z,100669.16
2023-03-27T23:33:50.672Z,100672.03
2023-03-27T23:35:53.969Z,100667.78
2023-03-27T23:37:55.412Z,100672.53
2023-03-27T23:39:56.798Z,100678.97
2023-03-27T23:41:58.180Z,100673.19
2023-03-27T23:43:59.567Z,100677.44
2023-03-27T23:46:01.737Z,100680.31
2023-03-27T23:48:03.651Z,100680.84
2023-03-27T23:50:06.133Z,100687.00
2023-03-27T23:52:07.546Z,100681.50
2023-03-27T23:54:08.919Z,100685.19
2023-03-27T23:56:10.905Z,100683.53
2023-03-27T23:58:12.321Z,100687.06
